EHGR/GLZ METAR and TAF weather

Enter ICAO airport designator
Station Type Date Time Source
EHGR METAR 2020/11/28 20:20 UTC NOAA

EHGR 282020Z AUTO 07009KT 030V110 0900 FG OVC000 03/03 Q1023 RED


Station Type Date Time Source
EHGR Decoded METAR 2020/11/28 20:20 UTC NOAA

Gilze-Rijen, Netherlands (EHGR) 51-34N 004-56E 24M
Nov 28, 2020 - 03:20 PM EST / 2020.11.28 2020 UTC
Wind: from the ENE (070 degrees) at 10 MPH (9 KT) (direction variable):0
Visibility: less than 1 mile:0
Sky conditions: overcast
Weather: fog
Temperature: 37 F (3 C)
Dew Point: 37 F (3 C)
Relative Humidity: 100%
Pressure (altimeter): 30.21 in. Hg (1023 hPa)
ob: EHGR 282020Z AUTO 07009KT 030V110 0900 FG OVC000 03/03 Q1023 RED
cycle: 20

Station Type Date Time Source
EHGR TAF 2020/11/27 10:51 UTC NOAA

TAF TAF EHGR 270934Z 2710/2722 08004KT 5000 BR BKN015
TEMPO 2710/2717 3500 -DZ BR BKN006 PROB40
TEMPO 2710/2715 2000 DZRA BR SCT003 OVC005
BECMG 2714/2717 SCT020
BECMG 2718/2720 4000 BR
BECMG 2720/2722 2500 BR MIFG

Example: see airport list